createdAt,value
2023-02-08T00:01:27.236Z,99170.31
2023-02-08T00:03:53.913Z,99179.47
2023-02-08T00:06:20.427Z,99176.09
2023-02-08T00:08:46.941Z,99184.53
2023-02-08T00:11:13.508Z,99189.59
2023-02-08T00:13:42.209Z,99182.00
2023-02-08T00:16:09.360Z,99185.31
2023-02-08T00:18:35.862Z,99192.00
2023-02-08T00:21:10.654Z,99187.66
2023-02-08T00:23:37.361Z,99189.22
2023-02-08T00:26:04.169Z,99194.38
2023-02-08T00:28:30.951Z,99191.84
2023-02-08T00:30:57.820Z,99186.03
2023-02-08T00:33:24.516Z,99189.41
2023-02-08T00:35:51.795Z,99195.22
2023-02-08T00:38:18.281Z,99186.78
2023-02-08T00:40:44.743Z,99189.34
2023-02-08T00:43:11.742Z,99188.50
2023-02-08T00:45:38.362Z,99187.50
2023-02-08T00:48:04.813Z,99194.19
2023-02-08T00:50:31.306Z,99190.03
2023-02-08T00:52:59.606Z,99187.50
2023-02-08T00:55:26.050Z,99196.88
2023-02-08T00:57:52.478Z,99188.88
2023-02-08T01:00:19.083Z,99188.94
2023-02-08T01:02:45.576Z,99187.34
2023-02-08T01:05:12.738Z,99190.88
2023-02-08T01:07:39.450Z,99197.66
2023-02-08T01:10:07.274Z,99197.66
2023-02-08T01:12:33.710Z,99200.22
2023-02-08T01:15:00.188Z,99195.94
2023-02-08T01:17:26.714Z,99189.00
2023-02-08T01:19:53.449Z,99184.09
2023-02-08T01:22:19.963Z,99194.16
2023-02-08T01:24:46.430Z,99195.06
2023-02-08T01:27:12.988Z,99191.06
2023-02-08T01:29:39.435Z,99193.59
2023-02-08T01:32:06.098Z,99187.66
2023-02-08T01:34:32.585Z,99196.88
2023-02-08T01:36:59.108Z,99190.91
2023-02-08T01:39:25.600Z,99198.56
2023-02-08T01:41:52.118Z,99197.75
2023-02-08T01:44:18.562Z,99196.94
2023-02-08T01:46:48.604Z,99196.06
2023-02-08T01:49:20.541Z,99201.22
2023-02-08T01:51:54.847Z,99200.34
2023-02-08T01:54:24.129Z,99195.06
2023-02-08T01:56:50.934Z,99198.47
2023-02-08T01:59:22.827Z,99194.66
2023-02-08T02:01:51.434Z,99192.19
2023-02-08T02:04:18.057Z,99193.88
2023-02-08T02:06:47.115Z,99192.22
2023-02-08T02:09:36.245Z,99200.47
2023-02-08T02:12:02.715Z,99205.41
2023-02-08T02:14:29.303Z,99203.00
2023-02-08T02:16:55.868Z,99197.19
2023-02-08T02:19:30.882Z,99197.31
2023-02-08T02:22:10.905Z,99201.34
2023-02-08T02:25:09.533Z,99200.44
2023-02-08T02:27:45.649Z,99205.66
2023-02-08T02:30:37.312Z,99201.22
2023-02-08T02:33:31.910Z,99213.69
2023-02-08T02:36:35.383Z,99214.75
2023-02-08T02:39:23.614Z,99224.50
2023-02-08T02:42:19.971Z,99221.25
2023-02-08T02:44:58.522Z,99224.06
2023-02-08T02:47:31.729Z,99225.81
2023-02-08T02:50:10.160Z,99220.81
2023-02-08T02:52:48.686Z,99221.72
2023-02-08T02:55:17.414Z,99227.63
2023-02-08T02:57:45.090Z,99229.25
2023-02-08T03:00:13.930Z,99225.16
2023-02-08T03:02:40.421Z,99226.06
2023-02-08T03:05:09.639Z,99228.44
2023-02-08T03:07:50.433Z,99227.59
2023-02-08T03:10:22.780Z,99225.97
2023-02-08T03:12:59.589Z,99225.97
2023-02-08T03:15:34.666Z,99231.06
2023-02-08T03:18:13.018Z,99230.97
2023-02-08T03:20:50.076Z,99229.22
2023-02-08T03:23:30.548Z,99242.75
2023-02-08T03:26:08.280Z,99232.66
2023-02-08T03:29:03.278Z,99232.69
2023-02-08T03:31:40.061Z,99242.84
2023-02-08T03:34:12.908Z,99242.91
2023-02-08T03:37:31.025Z,99241.25
2023-02-08T03:40:36.327Z,99239.63
2023-02-08T03:43:08.843Z,99237.72
2023-02-08T03:45:42.392Z,99249.69
2023-02-08T03:48:11.017Z,99249.75
2023-02-08T03:50:39.941Z,99254.75
2023-02-08T03:53:07.735Z,99252.31
2023-02-08T03:55:35.803Z,99244.69
2023-02-08T03:58:19.762Z,99247.19
2023-02-08T04:00:52.277Z,99248.84
2023-02-08T04:03:27.462Z,99251.47
2023-02-08T04:05:54.460Z,99252.28
2023-02-08T04:08:21.899Z,99248.00
2023-02-08T04:10:48.951Z,99251.44
2023-02-08T04:13:15.598Z,99247.91
2023-02-08T04:15:42.140Z,99244.63
2023-02-08T04:18:08.702Z,99255.59
2023-02-08T04:20:35.195Z,99255.22
2023-02-08T04:23:01.668Z,99255.41
2023-02-08T04:25:28.497Z,99249.53
2023-02-08T04:27:55.035Z,99245.44
2023-02-08T04:30:21.505Z,99253.75
2023-02-08T04:32:48.112Z,99256.28
2023-02-08T04:35:14.719Z,99252.16
2023-02-08T04:37:41.179Z,99260.59
2023-02-08T04:40:08.113Z,99258.66
2023-02-08T04:42:35.249Z,99258.00
2023-02-08T04:45:01.744Z,99261.50
2023-02-08T04:47:28.399Z,99264.88
2023-02-08T04:49:54.825Z,99262.34
2023-02-08T04:52:21.269Z,99264.91
2023-02-08T04:54:47.701Z,99263.25
2023-02-08T04:57:14.332Z,99255.44
2023-02-08T04:59:40.854Z,99262.38
2023-02-08T05:02:07.342Z,99264.06
2023-02-08T05:04:34.093Z,99266.63
2023-02-08T05:07:00.536Z,99270.69
2023-02-08T05:09:27.075Z,99269.03
2023-02-08T05:11:53.518Z,99267.47
2023-02-08T05:14:20.064Z,99275.16
2023-02-08T05:16:46.545Z,99274.19
2023-02-08T05:19:13.467Z,99277.59
2023-02-08T05:21:39.971Z,99277.75
2023-02-08T05:24:07.191Z,99285.91
2023-02-08T05:26:33.665Z,99284.34
2023-02-08T05:29:00.165Z,99291.13
2023-02-08T05:31:26.941Z,99298.75
2023-02-08T05:33:53.658Z,99290.38
2023-02-08T05:36:23.188Z,99292.97
2023-02-08T05:38:50.012Z,99304.72
2023-02-08T05:41:17.191Z,99304.72
2023-02-08T05:43:43.642Z,99299.69
2023-02-08T05:46:10.096Z,99303.78
2023-02-08T05:48:36.758Z,99308.13
2023-02-08T05:51:03.616Z,99312.25
2023-02-08T05:53:30.520Z,99310.66
2023-02-08T05:56:00.128Z,99310.75
2023-02-08T05:58:26.943Z,99310.78
2023-02-08T06:00:53.528Z,99315.00
2023-02-08T06:03:20.092Z,99316.72
2023-02-08T06:05:46.678Z,99318.44
2023-02-08T06:08:13.237Z,99327.81
2023-02-08T06:10:40.084Z,99335.25
2023-02-08T06:13:06.760Z,99326.59
2023-02-08T06:15:33.229Z,99331.75
2023-02-08T06:17:59.791Z,99333.31
2023-02-08T06:20:26.470Z,99333.50
2023-02-08T06:22:53.138Z,99334.44
2023-02-08T06:25:19.651Z,99334.38
2023-02-08T06:27:46.325Z,99336.88
2023-02-08T06:30:13.372Z,99334.34
2023-02-08T06:32:39.906Z,99331.03
2023-02-08T06:35:07.072Z,99336.06
2023-02-08T06:37:33.950Z,99340.34
2023-02-08T06:40:01.966Z,99337.91
2023-02-08T06:42:28.584Z,99345.53
2023-02-08T06:44:56.076Z,99349.84
2023-02-08T06:47:23.308Z,99343.94
2023-02-08T06:49:50.246Z,99355.00
2023-02-08T06:52:16.958Z,99356.56
2023-02-08T06:54:43.424Z,99361.72
2023-02-08T06:57:12.914Z,99361.88
2023-02-08T06:59:40.314Z,99367.81
2023-02-08T07:02:14.036Z,99372.13
2023-02-08T07:04:40.621Z,99368.53
2023-02-08T07:07:07.595Z,99372.75
2023-02-08T07:09:35.208Z,99376.19
2023-02-08T07:12:05.328Z,99380.38
2023-02-08T07:14:37.163Z,99386.28
2023-02-08T07:17:03.840Z,99391.53
2023-02-08T07:19:30.525Z,99388.88
2023-02-08T07:21:57.443Z,99395.69
2023-02-08T07:24:24.156Z,99396.50
2023-02-08T07:26:50.731Z,99394.75
2023-02-08T07:29:17.245Z,99393.84
2023-02-08T07:31:43.752Z,99393.88
2023-02-08T07:34:10.256Z,99392.16
2023-02-08T07:36:36.844Z,99388.75
2023-02-08T07:39:03.540Z,99389.69
2023-02-08T07:41:30.076Z,99388.06
2023-02-08T07:43:56.510Z,99394.75
2023-02-08T07:46:23.715Z,99382.84
2023-02-08T07:48:50.329Z,99390.47
2023-02-08T07:51:16.976Z,99385.38
2023-02-08T07:53:43.509Z,99388.81
2023-02-08T07:56:10.476Z,99385.38
2023-02-08T07:58:37.506Z,99390.19
2023-02-08T08:01:19.507Z,99385.25
2023-02-08T08:03:48.749Z,99388.59
2023-02-08T08:06:15.287Z,99388.75
2023-02-08T08:08:42.354Z,99393.78
2023-02-08T08:11:08.955Z,99399.00
2023-02-08T08:13:35.409Z,99397.44
2023-02-08T08:16:01.986Z,99397.41
2023-02-08T08:18:29.247Z,99394.94
2023-02-08T08:20:55.726Z,99398.25
2023-02-08T08:23:23.899Z,99398.38
2023-02-08T08:25:50.432Z,99398.16
2023-02-08T08:28:17.137Z,99387.78
2023-02-08T08:30:44.687Z,99395.50
2023-02-08T08:33:14.070Z,99395.41
2023-02-08T08:35:41.172Z,99402.25
2023-02-08T08:38:07.634Z,99394.72
2023-02-08T08:40:34.251Z,99400.63
2023-02-08T08:43:00.761Z,99401.34
2023-02-08T08:45:27.401Z,99407.44
2023-02-08T08:47:54.028Z,99404.84
2023-02-08T08:50:20.492Z,99404.03
2023-02-08T08:52:46.932Z,99409.97
2023-02-08T08:55:13.519Z,99413.41
2023-02-08T08:57:39.979Z,99412.75
2023-02-08T09:00:06.799Z,99418.75
2023-02-08T09:02:33.319Z,99413.88
2023-02-08T09:05:00.312Z,99418.63
2023-02-08T09:07:26.927Z,99416.97
2023-02-08T09:09:53.393Z,99418.75
2023-02-08T09:12:19.889Z,99423.00
2023-02-08T09:14:46.412Z,99417.09
2023-02-08T09:17:13.039Z,99410.41
2023-02-08T09:19:39.592Z,99408.72
2023-02-08T09:22:07.351Z,99411.47
2023-02-08T09:24:34.504Z,99409.66
2023-02-08T09:27:01.335Z,99413.06
2023-02-08T09:29:30.159Z,99418.06
2023-02-08T09:31:57.266Z,99424.81
2023-02-08T09:34:24.247Z,99418.69
2023-02-08T09:36:50.749Z,99415.34
2023-02-08T09:39:20.378Z,99418.13
2023-02-08T09:42:08.850Z,99417.34
2023-02-08T09:44:47.222Z,99426.66
2023-02-08T09:47:29.514Z,99419.94
2023-02-08T09:50:04.011Z,99415.72
2023-02-08T09:52:39.188Z,99418.44
2023-02-08T09:55:29.096Z,99422.84
2023-02-08T09:57:58.354Z,99422.81
2023-02-08T10:00:51.647Z,99420.41
2023-02-08T10:03:30.282Z,99416.31
2023-02-08T10:05:57.201Z,99420.59
2023-02-08T10:08:34.367Z,99430.66
2023-02-08T10:11:13.275Z,99425.63
2023-02-08T10:13:45.201Z,99419.78
2023-02-08T10:16:49.089Z,99422.19
2023-02-08T10:19:38.211Z,99423.16
2023-02-08T10:22:16.405Z,99415.56
2023-02-08T10:25:04.460Z,99422.28
2023-02-08T10:27:54.402Z,99412.81
2023-02-08T10:30:31.611Z,99421.50
2023-02-08T10:33:02.013Z,99412.00
2023-02-08T10:35:37.257Z,99420.41
2023-02-08T10:38:23.394Z,99418.19
2023-02-08T10:40:56.790Z,99417.41
2023-02-08T10:43:37.238Z,99415.63
2023-02-08T10:46:09.882Z,99417.22
2023-02-08T10:48:46.978Z,99410.38
2023-02-08T10:51:17.894Z,99406.09
2023-02-08T10:53:44.854Z,99402.84
2023-02-08T10:56:29.718Z,99398.53
2023-02-08T10:59:00.501Z,99400.28
2023-02-08T11:01:27.931Z,99400.38
2023-02-08T11:04:12.078Z,99397.03
2023-02-08T11:06:40.622Z,99398.66
2023-02-08T11:09:13.154Z,99397.81
2023-02-08T11:11:41.161Z,99389.19
2023-02-08T11:14:19.525Z,99400.19
2023-02-08T11:16:54.147Z,99398.56
2023-02-08T11:19:35.366Z,99401.94
2023-02-08T11:22:05.736Z,99397.75
2023-02-08T11:24:40.027Z,99396.19
2023-02-08T11:27:28.866Z,99402.84
2023-02-08T11:30:15.823Z,99401.22
2023-02-08T11:32:44.255Z,99402.13
2023-02-08T11:35:23.747Z,99395.50
2023-02-08T11:37:54.667Z,99397.84
2023-02-08T11:40:25.002Z,99402.09
2023-02-08T11:42:51.729Z,99407.06
2023-02-08T11:45:36.314Z,99398.53
2023-02-08T11:48:05.014Z,99397.84
2023-02-08T11:50:34.811Z,99401.28
2023-02-08T11:53:06.522Z,99405.44
2023-02-08T11:55:34.554Z,99398.66
2023-02-08T11:58:09.536Z,99402.03
2023-02-08T12:00:37.393Z,99395.28
2023-02-08T12:03:06.885Z,99396.00
2023-02-08T12:05:49.870Z,99386.84
2023-02-08T12:08:29.237Z,99394.41
2023-02-08T12:11:14.190Z,99396.19
2023-02-08T12:13:46.764Z,99391.03
2023-02-08T12:16:22.045Z,99393.66
2023-02-08T12:18:52.734Z,99396.09
2023-02-08T12:21:23.253Z,99398.66
2023-02-08T12:23:55.847Z,99397.13
2023-02-08T12:26:37.495Z,99403.09
2023-02-08T12:29:48.009Z,99408.09
2023-02-08T12:32:20.732Z,99398.81
2023-02-08T12:35:33.054Z,99396.41
2023-02-08T12:38:57.209Z,99392.88
2023-02-08T12:41:36.233Z,99394.47
2023-02-08T12:44:08.756Z,99383.50
2023-02-08T12:46:49.069Z,99382.72
2023-02-08T12:49:41.871Z,99388.56
2023-02-08T12:52:24.303Z,99384.44
2023-02-08T12:54:58.205Z,99382.91
2023-02-08T12:57:27.105Z,99382.19
2023-02-08T13:00:23.798Z,99372.13
2023-02-08T13:03:16.425Z,99377.16
2023-02-08T13:06:01.265Z,99371.13
2023-02-08T13:08:40.677Z,99361.03
2023-02-08T13:11:37.237Z,99376.31
2023-02-08T13:14:13.507Z,99366.22
2023-02-08T13:16:46.040Z,99372.19
2023-02-08T13:19:33.651Z,99364.59
2023-02-08T13:22:00.685Z,99356.91
2023-02-08T13:24:41.866Z,99361.97
2023-02-08T13:27:16.159Z,99352.63
2023-02-08T13:29:47.144Z,99354.28
2023-02-08T13:32:22.417Z,99341.66
2023-02-08T13:34:53.130Z,99353.53
2023-02-08T13:37:30.262Z,99355.22
2023-02-08T13:40:17.392Z,99352.69
2023-02-08T13:42:49.144Z,99351.00
2023-02-08T13:45:39.929Z,99356.13
2023-02-08T13:48:08.652Z,99346.78
2023-02-08T13:50:35.307Z,99341.72
2023-02-08T13:53:02.965Z,99347.66
2023-02-08T13:55:33.571Z,99346.00
2023-02-08T13:58:16.196Z,99355.34
2023-02-08T14:01:08.824Z,99347.63
2023-02-08T14:03:35.482Z,99350.19
2023-02-08T14:06:05.725Z,99349.31
2023-02-08T14:09:07.123Z,99343.34
2023-02-08T14:11:41.136Z,99343.19
2023-02-08T14:14:17.641Z,99336.38
2023-02-08T14:17:20.175Z,99341.28
2023-02-08T14:19:57.227Z,99336.09
2023-02-08T14:22:23.821Z,99335.25
2023-02-08T14:25:01.858Z,99331.97
2023-02-08T14:27:53.588Z,99340.53
2023-02-08T14:30:22.234Z,99342.25
2023-02-08T14:32:51.492Z,99339.72
2023-02-08T14:35:22.887Z,99339.63
2023-02-08T14:37:52.172Z,99335.41
2023-02-08T14:40:22.462Z,99332.66
2023-02-08T14:43:03.911Z,99324.19
2023-02-08T14:45:39.209Z,99307.22
2023-02-08T14:48:11.990Z,99308.06
2023-02-08T14:50:51.187Z,99309.75
2023-02-08T14:53:52.409Z,99305.53
2023-02-08T14:56:31.601Z,99294.59
2023-02-08T14:59:09.546Z,99303.72
2023-02-08T15:01:44.943Z,99295.09
2023-02-08T15:04:15.580Z,99301.00
2023-02-08T15:07:40.868Z,99298.56
2023-02-08T15:10:15.860Z,99300.28
2023-02-08T15:12:45.697Z,99298.38
2023-02-08T15:15:33.420Z,99293.94
2023-02-08T15:18:01.657Z,99295.66
2023-02-08T15:20:33.208Z,99297.25
2023-02-08T15:23:07.219Z,99291.31
2023-02-08T15:25:36.407Z,99292.75
2023-02-08T15:28:15.058Z,99289.38
2023-02-08T15:30:42.808Z,99290.16
2023-02-08T15:33:14.573Z,99285.22
2023-02-08T15:35:42.622Z,99280.06
2023-02-08T15:38:27.676Z,99270.69
2023-02-08T15:41:03.448Z,99269.75
2023-02-08T15:43:30.507Z,99271.50
2023-02-08T15:45:58.463Z,99266.41
2023-02-08T15:48:25.890Z,99260.44
2023-02-08T15:50:53.832Z,99258.81
2023-02-08T15:53:20.835Z,99257.03
2023-02-08T15:55:49.796Z,99252.69
2023-02-08T15:58:28.569Z,99254.31
2023-02-08T16:00:57.346Z,99245.03
2023-02-08T16:03:24.683Z,99250.84
2023-02-08T16:05:54.205Z,99244.78
2023-02-08T16:08:23.682Z,99244.88
2023-02-08T16:10:54.756Z,99247.31
2023-02-08T16:13:27.701Z,99246.38
2023-02-08T16:16:07.229Z,99246.41
2023-02-08T16:18:46.067Z,99247.19
2023-02-08T16:21:27.147Z,99239.50
2023-02-08T16:23:56.669Z,99242.75
2023-02-08T16:26:28.202Z,99230.81
2023-02-08T16:29:00.749Z,99232.69
2023-02-08T16:31:30.909Z,99228.38
2023-02-08T16:34:13.054Z,99225.84
2023-02-08T16:36:41.462Z,99229.19
2023-02-08T16:39:13.842Z,99225.53
2023-02-08T16:42:16.122Z,99217.16
2023-02-08T16:44:59.183Z,99216.19
2023-02-08T16:47:29.946Z,99214.69
2023-02-08T16:49:56.507Z,99213.50
2023-02-08T16:52:23.021Z,99212.53
2023-02-08T16:54:49.539Z,99215.94
2023-02-08T16:57:16.279Z,99207.66
2023-02-08T16:59:42.894Z,99211.03
2023-02-08T17:02:13.414Z,99211.06
2023-02-08T17:04:40.372Z,99209.59
2023-02-08T17:07:13.340Z,99206.06
2023-02-08T17:09:42.252Z,99207.50
2023-02-08T17:12:21.773Z,99197.50
2023-02-08T17:14:48.625Z,99196.72
2023-02-08T17:17:15.400Z,99187.34
2023-02-08T17:19:44.409Z,99198.38
2023-02-08T17:22:10.964Z,99198.22
2023-02-08T17:24:39.214Z,99194.09
2023-02-08T17:27:06.007Z,99202.41
2023-02-08T17:29:32.599Z,99193.97
2023-02-08T17:31:59.373Z,99182.13
2023-02-08T17:34:25.889Z,99189.56
2023-02-08T17:36:52.557Z,99181.13
2023-02-08T17:39:19.192Z,99182.16
2023-02-08T17:41:45.708Z,99188.81
2023-02-08T17:44:15.207Z,99187.13
2023-02-08T17:46:42.502Z,99192.91
2023-02-08T17:49:09.109Z,99184.41
2023-02-08T17:51:35.602Z,99187.78
2023-02-08T17:54:05.422Z,99190.19
2023-02-08T17:56:35.364Z,99185.97
2023-02-08T17:59:04.240Z,99192.75
2023-02-08T18:01:31.381Z,99198.38
2023-02-08T18:03:59.428Z,99188.81
2023-02-08T18:06:26.105Z,99184.25
2023-02-08T18:08:54.599Z,99190.22
2023-02-08T18:11:21.171Z,99193.72
2023-02-08T18:13:49.328Z,99195.31
2023-02-08T18:16:21.300Z,99191.00
2023-02-08T18:18:47.963Z,99189.38
2023-02-08T18:21:17.441Z,99190.13
2023-02-08T18:23:44.456Z,99184.19
2023-02-08T18:26:17.020Z,99188.06
2023-02-08T18:28:44.794Z,99184.06
2023-02-08T18:31:14.850Z,99180.72
2023-02-08T18:33:42.828Z,99181.69
2023-02-08T18:36:11.801Z,99178.38
2023-02-08T18:38:45.569Z,99173.47
2023-02-08T18:41:18.786Z,99170.03
2023-02-08T18:43:45.792Z,99181.78
2023-02-08T18:46:14.552Z,99175.06
2023-02-08T18:48:41.595Z,99170.94
2023-02-08T18:51:09.491Z,99176.69
2023-02-08T18:53:38.994Z,99175.03
2023-02-08T18:56:07.343Z,99170.81
2023-02-08T18:58:34.591Z,99171.50
2023-02-08T19:01:15.677Z,99181.97
2023-02-08T19:03:43.149Z,99187.06
2023-02-08T19:06:22.770Z,99183.50
2023-02-08T19:08:51.613Z,99187.59
2023-02-08T19:11:25.277Z,99185.13
2023-02-08T19:13:52.491Z,99184.25
2023-02-08T19:16:22.056Z,99180.84
2023-02-08T19:18:49.202Z,99173.75
2023-02-08T19:21:17.484Z,99167.25
2023-02-08T19:23:48.216Z,99167.41
2023-02-08T19:26:18.205Z,99174.00
2023-02-08T19:28:44.683Z,99159.63
2023-02-08T19:31:13.810Z,99161.59
2023-02-08T19:33:42.239Z,99160.66
2023-02-08T19:36:11.810Z,99148.78
2023-02-08T19:38:38.427Z,99148.22
2023-02-08T19:41:06.697Z,99151.25
2023-02-08T19:43:33.757Z,99143.19
2023-02-08T19:46:00.474Z,99143.28
2023-02-08T19:48:27.164Z,99141.59
2023-02-08T19:50:58.647Z,99134.38
2023-02-08T19:53:25.874Z,99136.66
2023-02-08T19:56:06.769Z,99137.50
2023-02-08T19:58:34.447Z,99148.31
2023-02-08T20:01:06.236Z,99150.75
2023-02-08T20:03:32.766Z,99149.22
2023-02-08T20:05:59.221Z,99145.66
2023-02-08T20:08:27.384Z,99144.78
2023-02-08T20:10:54.833Z,99136.94
2023-02-08T20:13:21.804Z,99137.78
2023-02-08T20:15:48.527Z,99141.59
2023-02-08T20:18:16.297Z,99139.69
2023-02-08T20:20:43.553Z,99141.13
2023-02-08T20:23:21.761Z,99131.13
2023-02-08T20:25:48.897Z,99127.03
2023-02-08T20:28:15.501Z,99119.78
2023-02-08T20:30:42.235Z,99122.31
2023-02-08T20:33:08.786Z,99124.72
2023-02-08T20:35:36.470Z,99112.97
2023-02-08T20:38:03.221Z,99115.25
2023-02-08T20:40:29.885Z,99104.50
2023-02-08T20:42:56.414Z,99111.69
2023-02-08T20:45:23.050Z,99105.72
2023-02-08T20:47:49.562Z,99116.59
2023-02-08T20:50:19.640Z,99112.44
2023-02-08T20:52:47.289Z,99115.91
2023-02-08T20:55:13.796Z,99115.81
2023-02-08T20:57:40.593Z,99106.50
2023-02-08T21:00:07.569Z,99119.16
2023-02-08T21:02:34.167Z,99105.75
2023-02-08T21:05:00.700Z,99110.59
2023-02-08T21:07:27.235Z,99109.69
2023-02-08T21:09:53.791Z,99110.38
2023-02-08T21:12:20.325Z,99115.50
2023-02-08T21:14:46.776Z,99112.06
2023-02-08T21:17:13.246Z,99113.66
2023-02-08T21:19:39.691Z,99106.88
2023-02-08T21:22:06.367Z,99115.16
2023-02-08T21:24:32.926Z,99110.00
2023-02-08T21:26:59.721Z,99106.75
2023-02-08T21:29:26.386Z,99105.97
2023-02-08T21:31:54.404Z,99116.19
2023-02-08T21:34:21.450Z,99113.00
2023-02-08T21:36:48.246Z,99108.84
2023-02-08T21:39:14.689Z,99105.47
2023-02-08T21:41:41.166Z,99096.19
2023-02-08T21:44:09.163Z,99105.31
2023-02-08T21:46:35.889Z,99100.38
2023-02-08T21:49:21.370Z,99099.44
2023-02-08T21:52:06.348Z,99103.75
2023-02-08T21:54:44.633Z,99088.66
2023-02-08T21:57:18.945Z,99087.50
2023-02-08T21:59:47.532Z,99086.56
2023-02-08T22:02:16.786Z,99093.34
2023-02-08T22:04:46.599Z,99080.44
2023-02-08T22:07:13.728Z,99074.69
2023-02-08T22:09:41.646Z,99079.75
2023-02-08T22:12:14.502Z,99067.75
2023-02-08T22:14:41.047Z,99064.44
2023-02-08T22:17:07.543Z,99067.59
2023-02-08T22:19:34.047Z,99069.25
2023-02-08T22:22:02.232Z,99058.78
2023-02-08T22:24:28.698Z,99067.13
2023-02-08T22:26:55.707Z,99062.88
2023-02-08T22:29:22.987Z,99067.31
2023-02-08T22:31:49.610Z,99056.97
2023-02-08T22:34:16.217Z,99054.31
2023-02-08T22:36:42.676Z,99053.31
2023-02-08T22:39:09.185Z,99045.78
2023-02-08T22:41:35.941Z,99037.50
2023-02-08T22:44:02.429Z,99041.09
2023-02-08T22:46:29.099Z,99027.47
2023-02-08T22:48:55.793Z,99023.22
2023-02-08T22:51:23.557Z,99025.69
2023-02-08T22:53:50.182Z,99019.72
2023-02-08T22:56:18.175Z,99016.16
2023-02-08T22:58:44.605Z,99012.91
2023-02-08T23:01:15.718Z,99011.31
2023-02-08T23:03:43.033Z,99006.91
2023-02-08T23:06:10.874Z,99013.69
2023-02-08T23:08:37.512Z,99003.41
2023-02-08T23:11:05.844Z,99006.09
2023-02-08T23:13:33.015Z,99005.13
2023-02-08T23:15:59.679Z,99004.13
2023-02-08T23:18:26.290Z,98999.13
2023-02-08T23:20:54.439Z,98994.06
2023-02-08T23:23:21.080Z,98987.13
2023-02-08T23:25:47.914Z,98978.81
2023-02-08T23:28:14.521Z,98982.81
2023-02-08T23:30:42.411Z,98976.31
2023-02-08T23:33:09.057Z,98980.25
2023-02-08T23:35:35.556Z,98973.72
2023-02-08T23:38:02.204Z,98970.94
2023-02-08T23:40:28.755Z,98964.41
2023-02-08T23:42:55.274Z,98972.91
2023-02-08T23:45:22.734Z,98970.16
2023-02-08T23:47:49.274Z,98963.41
2023-02-08T23:50:15.818Z,98965.13
2023-02-08T23:52:42.567Z,98966.69
2023-02-08T23:55:09.346Z,98971.78
2023-02-08T23:57:37.290Z,98972.31
